sensor_id;sensor_type;location;lat;lon;timestamp;pressure;altitude;pressure_sealevel;temperature;humidity
7018;BME280;3549;42.162;24.726;2023-02-03T00:00:59;47765.09;;;-141.97;67.45
7018;BME280;3549;42.162;24.726;2023-02-03T00:03:26;47684.38;;;-141.97;67.38
7018;BME280;3549;42.162;24.726;2023-02-03T00:05:51;47751.66;;;-141.97;67.53
7018;BME280;3549;42.162;24.726;2023-02-03T00:08:17;47724.75;;;-141.97;67.23
7018;BME280;3549;42.162;24.726;2023-02-03T00:10:44;47772.78;;;-141.97;67.13
7018;BME280;3549;42.162;24.726;2023-02-03T00:13:10;47742.03;;;-141.97;67.67
7018;BME280;3549;42.162;24.726;2023-02-03T00:15:35;47745.88;;;-141.97;68.28
7018;BME280;3549;42.162;24.726;2023-02-03T00:18:01;47763.19;;;-141.97;67.76
7018;BME280;3549;42.162;24.726;2023-02-03T00:20:27;47757.41;;;-141.97;67.35
7018;BME280;3549;42.162;24.726;2023-02-03T00:22:52;47740.13;;;-141.97;66.87
7018;BME280;3549;42.162;24.726;2023-02-03T00:25:18;47705.53;;;-141.97;67.12
7018;BME280;3549;42.162;24.726;2023-02-03T00:27:45;47722.81;;;-141.97;66.67
7018;BME280;3549;42.162;24.726;2023-02-03T00:30:11;47747.81;;;-141.97;66.40
7018;BME280;3549;42.162;24.726;2023-02-03T00:32:37;47738.19;;;-141.97;66.06
7018;BME280;3549;42.162;24.726;2023-02-03T00:35:03;47674.78;;;-141.97;65.11
7018;BME280;3549;42.162;24.726;2023-02-03T00:37:28;47768.94;;;-141.97;65.34
7018;BME280;3549;42.162;24.726;2023-02-03T00:39:54;47718.97;;;-141.97;65.63
7018;BME280;3549;42.162;24.726;2023-02-03T00:42:19;47632.47;;;-141.97;66.69
7018;BME280;3549;42.162;24.726;2023-02-03T00:44:44;47772.78;;;-141.97;66.46
7018;BME280;3549;42.162;24.726;2023-02-03T00:47:10;47759.34;;;-141.97;67.38
7018;BME280;3549;42.162;24.726;2023-02-03T00:49:35;47718.97;;;-141.97;67.42
7018;BME280;3549;42.162;24.726;2023-02-03T00:52:01;47730.50;;;-141.97;68.23
7018;BME280;3549;42.162;24.726;2023-02-03T00:54:26;47642.09;;;-141.97;68.37
7018;BME280;3549;42.162;24.726;2023-02-03T00:56:51;47730.50;;;-141.97;68.53
7018;BME280;3549;42.162;24.726;2023-02-03T00:59:17;47705.53;;;-141.97;68.25
7018;BME280;3549;42.162;24.726;2023-02-03T01:01:42;47842.00;;;-141.97;68.13
7018;BME280;3549;42.162;24.726;2023-02-03T01:04:07;47732.44;;;-141.97;68.98
7018;BME280;3549;42.162;24.726;2023-02-03T01:06:33;47734.34;;;-141.97;69.04
7018;BME280;3549;42.162;24.726;2023-02-03T01:09:01;47803.56;;;-141.97;69.03
7018;BME280;3549;42.162;24.726;2023-02-03T01:11:26;47644.00;;;-141.97;68.56
7018;BME280;3549;42.162;24.726;2023-02-03T01:13:54;47753.56;;;-141.97;68.97
7018;BME280;3549;42.162;24.726;2023-02-03T01:16:21;47730.50;;;-141.97;68.99
7018;BME280;3549;42.162;24.726;2023-02-03T01:18:47;47753.56;;;-141.97;68.71
7018;BME280;3549;42.162;24.726;2023-02-03T01:21:15;47807.41;;;-141.97;69.49
7018;BME280;3549;42.162;24.726;2023-02-03T01:23:42;47609.41;;;-141.97;69.05
7018;BME280;3549;42.162;24.726;2023-02-03T01:26:10;47657.47;;;-141.97;68.65
7018;BME280;3549;42.162;24.726;2023-02-03T01:28:36;47709.38;;;-141.97;68.40
7018;BME280;3549;42.162;24.726;2023-02-03T01:31:33;47747.81;;;-141.97;68.60
7018;BME280;3549;42.162;24.726;2023-02-03T01:34:05;47680.53;;;-141.97;68.16
7018;BME280;3549;42.162;24.726;2023-02-03T01:36:32;47747.81;;;-141.97;68.88
7018;BME280;3549;42.162;24.726;2023-02-03T01:38:58;47751.66;;;-141.97;68.36
7018;BME280;3549;42.162;24.726;2023-02-03T01:41:32;47757.41;;;-141.97;68.24
7018;BME280;3549;42.162;24.726;2023-02-03T01:43:59;47751.66;;;-141.97;68.81
7018;BME280;3549;42.162;24.726;2023-02-03T01:46:27;47730.50;;;-141.97;68.68
7018;BME280;3549;42.162;24.726;2023-02-03T01:48:54;47720.91;;;-141.97;68.82
7018;BME280;3549;42.162;24.726;2023-02-03T01:51:23;47742.03;;;-141.97;68.64
7018;BME280;3549;42.162;24.726;2023-02-03T01:53:50;47620.94;;;-141.97;67.99
7018;BME280;3549;42.162;24.726;2023-02-03T01:56:17;47740.13;;;-141.97;67.70
7018;BME280;3549;42.162;24.726;2023-02-03T01:58:44;47776.63;;;-141.97;67.64
7018;BME280;3549;42.162;24.726;2023-02-03T02:01:11;47743.97;;;-141.97;67.81
7018;BME280;3549;42.162;24.726;2023-02-03T02:03:43;47776.63;;;-141.97;67.62
7018;BME280;3549;42.162;24.726;2023-02-03T02:06:12;47820.84;;;-141.97;67.67
7018;BME280;3549;42.162;24.726;2023-02-03T02:08:40;47761.25;;;-141.97;67.78
7018;BME280;3549;42.162;24.726;2023-02-03T02:11:07;47755.50;;;-141.97;68.24
7018;BME280;3549;42.162;24.726;2023-02-03T02:13:33;47811.25;;;-141.97;68.46
7018;BME280;3549;42.162;24.726;2023-02-03T02:16:26;47745.88;;;-141.97;68.36
7018;BME280;3549;42.162;24.726;2023-02-03T02:21:34;47743.97;;;-141.97;68.80
7018;BME280;3549;42.162;24.726;2023-02-03T02:34:25;47772.78;;;-141.97;70.28
7018;BME280;3549;42.162;24.726;2023-02-03T02:37:00;47722.81;;;-141.97;70.47
7018;BME280;3549;42.162;24.726;2023-02-03T02:44:55;47730.50;;;-141.97;71.53
7018;BME280;3549;42.162;24.726;2023-02-03T02:47:23;47738.19;;;-141.97;71.82
7018;BME280;3549;42.162;24.726;2023-02-03T02:49:59;47776.63;;;-141.97;71.71
7018;BME280;3549;42.162;24.726;2023-02-03T02:52:30;47703.59;;;-141.97;72.19
7018;BME280;3549;42.162;24.726;2023-02-03T02:55:00;47765.09;;;-141.97;72.19
7018;BME280;3549;42.162;24.726;2023-02-03T02:57:28;47811.25;;;-141.97;71.91
7018;BME280;3549;42.162;24.726;2023-02-03T02:59:54;47742.03;;;-141.97;72.00
7018;BME280;3549;42.162;24.726;2023-02-03T03:02:20;47742.03;;;-141.97;72.12
7018;BME280;3549;42.162;24.726;2023-02-03T03:04:48;47724.75;;;-141.97;71.76
7018;BME280;3549;42.162;24.726;2023-02-03T03:07:23;47755.50;;;-141.97;71.39
7018;BME280;3549;42.162;24.726;2023-02-03T03:09:55;47805.47;;;-141.97;71.47
7018;BME280;3549;42.162;24.726;2023-02-03T03:12:23;47757.41;;;-141.97;71.81
7018;BME280;3549;42.162;24.726;2023-02-03T03:14:59;47732.44;;;-141.97;71.37
7018;BME280;3549;42.162;24.726;2023-02-03T03:17:32;47736.28;;;-141.97;71.66
7018;BME280;3549;42.162;24.726;2023-02-03T03:20:03;47718.97;;;-141.97;71.48
7018;BME280;3549;42.162;24.726;2023-02-03T03:22:34;47682.47;;;-141.97;71.79
7018;BME280;3549;42.162;24.726;2023-02-03T03:25:23;47765.09;;;-141.97;72.35
7018;BME280;3549;42.162;24.726;2023-02-03T03:27:57;47765.09;;;-141.97;72.61
7018;BME280;3549;42.162;24.726;2023-02-03T03:30:26;47740.13;;;-141.97;72.94
7018;BME280;3549;42.162;24.726;2023-02-03T03:32:53;47720.91;;;-141.97;73.28
7018;BME280;3549;42.162;24.726;2023-02-03T03:35:19;47811.25;;;-141.97;73.16
7018;BME280;3549;42.162;24.726;2023-02-03T03:37:52;47642.09;;;-141.97;73.30
7018;BME280;3549;42.162;24.726;2023-02-03T03:40:27;47768.94;;;-141.97;73.01
7018;BME280;3549;42.162;24.726;2023-02-03T03:42:59;47755.50;;;-141.97;72.56
7018;BME280;3549;42.162;24.726;2023-02-03T03:48:21;47753.56;;;-141.97;72.26
7018;BME280;3549;42.162;24.726;2023-02-03T03:50:52;47718.97;;;-141.97;72.12
7018;BME280;3549;42.162;24.726;2023-02-03T03:53:22;47730.50;;;-141.97;71.95
7018;BME280;3549;42.162;24.726;2023-02-03T03:55:49;47703.59;;;-141.97;71.38
7018;BME280;3549;42.162;24.726;2023-02-03T03:58:28;47732.44;;;-141.97;71.62
7018;BME280;3549;42.162;24.726;2023-02-03T04:00:58;47753.56;;;-141.97;71.49
7018;BME280;3549;42.162;24.726;2023-02-03T04:03:40;47743.97;;;-141.97;71.45
7018;BME280;3549;42.162;24.726;2023-02-03T04:06:08;47811.25;;;-141.97;71.46
7018;BME280;3549;42.162;24.726;2023-02-03T04:08:34;47726.66;;;-141.97;71.68
7018;BME280;3549;42.162;24.726;2023-02-03T04:10:59;47790.09;;;-141.97;71.60
7018;BME280;3549;42.162;24.726;2023-02-03T04:13:24;47757.41;;;-141.97;72.01
7018;BME280;3549;42.162;24.726;2023-02-03T04:15:50;47740.13;;;-141.97;71.62
7018;BME280;3549;42.162;24.726;2023-02-03T04:18:15;47732.44;;;-141.97;71.58
7018;BME280;3549;42.162;24.726;2023-02-03T04:20:41;47747.81;;;-141.97;71.80
7018;BME280;3549;42.162;24.726;2023-02-03T04:23:07;47738.19;;;-141.97;71.64
7018;BME280;3549;42.162;24.726;2023-02-03T04:25:33;47699.75;;;-141.97;71.80
7018;BME280;3549;42.162;24.726;2023-02-03T04:27:58;47728.59;;;-141.97;72.17
7018;BME280;3549;42.162;24.726;2023-02-03T04:30:25;47743.97;;;-141.97;72.38
7018;BME280;3549;42.162;24.726;2023-02-03T04:32:50;47711.28;;;-141.97;72.26
7018;BME280;3549;42.162;24.726;2023-02-03T04:35:16;47770.88;;;-141.97;72.64
7018;BME280;3549;42.162;24.726;2023-02-03T04:37:41;47795.88;;;-141.97;73.23
7018;BME280;3549;42.162;24.726;2023-02-03T04:40:07;47768.94;;;-141.97;73.50
7018;BME280;3549;42.162;24.726;2023-02-03T04:42:35;47715.13;;;-141.97;73.54
7018;BME280;3549;42.162;24.726;2023-02-03T04:45:01;47749.72;;;-141.97;73.97
7018;BME280;3549;42.162;24.726;2023-02-03T04:47:27;47695.91;;;-141.97;73.70
7018;BME280;3549;42.162;24.726;2023-02-03T04:49:52;47699.75;;;-141.97;73.96
7018;BME280;3549;42.162;24.726;2023-02-03T04:52:17;47653.63;;;-141.97;73.91
7018;BME280;3549;42.162;24.726;2023-02-03T04:54:43;47745.88;;;-141.97;73.84
7018;BME280;3549;42.162;24.726;2023-02-03T04:57:08;47818.94;;;-141.97;73.83
7018;BME280;3549;42.162;24.726;2023-02-03T04:59:34;47640.16;;;-141.97;73.52
7018;BME280;3549;42.162;24.726;2023-02-03T05:02:03;47770.88;;;-141.97;73.66
7018;BME280;3549;42.162;24.726;2023-02-03T05:04:29;47730.50;;;-141.97;72.57
7018;BME280;3549;42.162;24.726;2023-02-03T05:06:54;47772.78;;;-141.97;72.12
7018;BME280;3549;42.162;24.726;2023-02-03T05:09:20;47807.41;;;-141.97;71.68
7018;BME280;3549;42.162;24.726;2023-02-03T05:11:46;47688.22;;;-141.97;72.44
7018;BME280;3549;42.162;24.726;2023-02-03T05:14:11;47715.13;;;-141.97;72.04
7018;BME280;3549;42.162;24.726;2023-02-03T05:16:37;47644.00;;;-141.97;72.30
7018;BME280;3549;42.162;24.726;2023-02-03T05:19:02;47749.72;;;-141.97;73.05
7018;BME280;3549;42.162;24.726;2023-02-03T05:21:27;47732.44;;;-141.97;72.59
7018;BME280;3549;42.162;24.726;2023-02-03T05:23:53;47703.59;;;-141.97;73.04
7018;BME280;3549;42.162;24.726;2023-02-03T05:26:18;47788.19;;;-141.97;73.13
7018;BME280;3549;42.162;24.726;2023-02-03T05:28:44;47742.03;;;-141.97;73.43
7018;BME280;3549;42.162;24.726;2023-02-03T05:31:09;47842.00;;;-141.97;73.79
7018;BME280;3549;42.162;24.726;2023-02-03T05:33:34;47745.88;;;-141.97;73.77
7018;BME280;3549;42.162;24.726;2023-02-03T05:36:00;47745.88;;;-141.97;73.38
7018;BME280;3549;42.162;24.726;2023-02-03T05:38:25;47745.88;;;-141.97;73.34
7018;BME280;3549;42.162;24.726;2023-02-03T05:40:51;47726.66;;;-141.97;73.54
7018;BME280;3549;42.162;24.726;2023-02-03T05:43:36;47703.59;;;-141.97;73.67
7018;BME280;3549;42.162;24.726;2023-02-03T05:46:03;47763.19;;;-141.97;73.22
7018;BME280;3549;42.162;24.726;2023-02-03T05:48:29;47803.56;;;-141.97;73.20
7018;BME280;3549;42.162;24.726;2023-02-03T05:50:54;47718.97;;;-141.97;72.85
7018;BME280;3549;42.162;24.726;2023-02-03T05:53:20;47695.91;;;-141.97;73.01
7018;BME280;3549;42.162;24.726;2023-02-03T05:55:45;47694.00;;;-141.97;73.16
7018;BME280;3549;42.162;24.726;2023-02-03T05:58:11;47788.19;;;-141.97;73.25
7018;BME280;3549;42.162;24.726;2023-02-03T06:00:36;47672.84;;;-141.97;72.80
7018;BME280;3549;42.162;24.726;2023-02-03T06:03:02;47665.16;;;-141.97;72.29
7018;BME280;3549;42.162;24.726;2023-02-03T06:05:29;47722.81;;;-141.97;72.01
7018;BME280;3549;42.162;24.726;2023-02-03T06:07:54;47780.47;;;-141.97;72.48
7018;BME280;3549;42.162;24.726;2023-02-03T06:10:20;47703.59;;;-141.97;71.84
7018;BME280;3549;42.162;24.726;2023-02-03T06:12:47;47726.66;;;-141.97;71.61
7018;BME280;3549;42.162;24.726;2023-02-03T06:15:13;47742.03;;;-141.97;70.88
7018;BME280;3549;42.162;24.726;2023-02-03T06:17:38;47815.09;;;-141.97;69.84
7018;BME280;3549;42.162;24.726;2023-02-03T06:20:06;47768.94;;;-141.97;68.91
7018;BME280;3549;42.162;24.726;2023-02-03T06:22:32;47740.13;;;-141.97;68.27
7018;BME280;3549;42.162;24.726;2023-02-03T06:24:57;47761.25;;;-141.97;68.26
7018;BME280;3549;42.162;24.726;2023-02-03T06:27:23;47728.59;;;-141.97;68.51
7018;BME280;3549;42.162;24.726;2023-02-03T06:29:48;47670.91;;;-141.97;69.20
7018;BME280;3549;42.162;24.726;2023-02-03T06:32:14;47757.41;;;-141.97;68.90
7018;BME280;3549;42.162;24.726;2023-02-03T06:34:40;47772.78;;;-141.97;68.92
7018;BME280;3549;42.162;24.726;2023-02-03T06:37:05;47699.75;;;-141.97;68.23
7018;BME280;3549;42.162;24.726;2023-02-03T06:39:30;47751.66;;;-141.97;68.28
7018;BME280;3549;42.162;24.726;2023-02-03T06:41:56;47730.50;;;-141.97;67.99
7018;BME280;3549;42.162;24.726;2023-02-03T06:44:21;47743.97;;;-141.97;68.10
7018;BME280;3549;42.162;24.726;2023-02-03T06:46:47;47678.63;;;-141.97;68.46
7018;BME280;3549;42.162;24.726;2023-02-03T06:49:13;47726.66;;;-141.97;68.76
7018;BME280;3549;42.162;24.726;2023-02-03T06:51:38;47728.59;;;-141.97;68.62
7018;BME280;3549;42.162;24.726;2023-02-03T06:54:04;47753.56;;;-141.97;67.74
7018;BME280;3549;42.162;24.726;2023-02-03T06:56:29;47759.34;;;-141.97;67.87
7018;BME280;3549;42.162;24.726;2023-02-03T06:58:55;47749.72;;;-141.97;67.17
7018;BME280;3549;42.162;24.726;2023-02-03T07:01:22;47699.75;;;-141.97;66.85
7018;BME280;3549;42.162;24.726;2023-02-03T07:03:50;47609.41;;;-141.97;66.64
7018;BME280;3549;42.162;24.726;2023-02-03T07:06:15;47707.44;;;-141.97;67.05
7018;BME280;3549;42.162;24.726;2023-02-03T07:08:41;47638.25;;;-141.97;66.58
7018;BME280;3549;42.162;24.726;2023-02-03T07:11:07;47726.66;;;-141.97;65.93
7018;BME280;3549;42.162;24.726;2023-02-03T07:13:32;47820.84;;;-141.97;65.78
7018;BME280;3549;42.162;24.726;2023-02-03T07:15:58;47836.22;;;-141.97;64.67
7018;BME280;3549;42.162;24.726;2023-02-03T07:18:23;47674.78;;;-141.97;64.18
7018;BME280;3549;42.162;24.726;2023-02-03T07:20:51;47826.63;;;-141.97;63.78
7018;BME280;3549;42.162;24.726;2023-02-03T07:23:17;47703.59;;;-141.97;64.22
7018;BME280;3549;42.162;24.726;2023-02-03T07:25:43;47724.75;;;-141.97;63.34
7018;BME280;3549;42.162;24.726;2023-02-03T07:28:09;47768.94;;;-141.97;63.76
7018;BME280;3549;42.162;24.726;2023-02-03T07:30:35;47711.28;;;-141.97;64.22
7018;BME280;3549;42.162;24.726;2023-02-03T07:33:00;47711.28;;;-141.97;63.96
7018;BME280;3549;42.162;24.726;2023-02-03T07:35:26;47753.56;;;-141.97;63.77
7018;BME280;3549;42.162;24.726;2023-02-03T07:37:52;47734.34;;;-141.97;64.19
7018;BME280;3549;42.162;24.726;2023-02-03T07:40:17;47701.69;;;-141.97;63.94
7018;BME280;3549;42.162;24.726;2023-02-03T07:42:45;47782.41;;;-141.97;64.17
7018;BME280;3549;42.162;24.726;2023-02-03T07:45:12;47749.72;;;-141.97;63.80
7018;BME280;3549;42.162;24.726;2023-02-03T07:47:39;47684.38;;;-141.97;63.21
7018;BME280;3549;42.162;24.726;2023-02-03T07:50:05;47707.44;;;-141.97;61.86
7018;BME280;3549;42.162;24.726;2023-02-03T07:52:30;47695.91;;;-141.97;62.04
7018;BME280;3549;42.162;24.726;2023-02-03T07:54:56;47715.13;;;-141.97;61.59
7018;BME280;3549;42.162;24.726;2023-02-03T07:57:21;47663.22;;;-141.97;60.87
7018;BME280;3549;42.162;24.726;2023-02-03T07:59:47;47695.91;;;-141.97;60.03
7018;BME280;3549;42.162;24.726;2023-02-03T08:02:12;47672.84;;;-141.97;59.79
7018;BME280;3549;42.162;24.726;2023-02-03T08:04:38;47799.72;;;-141.97;59.42
7018;BME280;3549;42.162;24.726;2023-02-03T08:07:03;47718.97;;;-141.97;59.49
7018;BME280;3549;42.162;24.726;2023-02-03T08:09:29;47738.19;;;-141.97;59.17
7018;BME280;3549;42.162;24.726;2023-02-03T08:11:54;47803.56;;;-141.97;59.39
7018;BME280;3549;42.162;24.726;2023-02-03T08:14:19;47672.84;;;-141.97;58.27
7018;BME280;3549;42.162;24.726;2023-02-03T08:16:45;47711.28;;;-141.97;58.05
7018;BME280;3549;42.162;24.726;2023-02-03T08:19:11;47686.31;;;-141.97;57.60
7018;BME280;3549;42.162;24.726;2023-02-03T08:21:36;47695.91;;;-141.97;57.77
7018;BME280;3549;42.162;24.726;2023-02-03T08:24:02;47676.69;;;-141.97;56.33
7018;BME280;3549;42.162;24.726;2023-02-03T08:26:28;47653.63;;;-141.97;56.77
7018;BME280;3549;42.162;24.726;2023-02-03T08:28:53;47815.09;;;-141.97;56.53
7018;BME280;3549;42.162;24.726;2023-02-03T08:31:19;47678.63;;;-141.97;55.82
7018;BME280;3549;42.162;24.726;2023-02-03T08:33:44;47820.84;;;-141.97;55.91
7018;BME280;3549;42.162;24.726;2023-02-03T08:36:10;47805.47;;;-141.97;55.59
7018;BME280;3549;42.162;24.726;2023-02-03T08:38:36;47674.78;;;-141.97;55.50
7018;BME280;3549;42.162;24.726;2023-02-03T08:41:07;47761.25;;;-141.97;54.88
7018;BME280;3549;42.162;24.726;2023-02-03T08:43:33;47717.06;;;-141.97;55.23
7018;BME280;3549;42.162;24.726;2023-02-03T08:46:02;47743.97;;;-141.97;53.98
7018;BME280;3549;42.162;24.726;2023-02-03T08:48:28;47655.53;;;-141.97;53.70
7018;BME280;3549;42.162;24.726;2023-02-03T08:50:53;47803.56;;;-141.97;53.26
7018;BME280;3549;42.162;24.726;2023-02-03T08:53:19;47734.34;;;-141.97;53.21
7018;BME280;3549;42.162;24.726;2023-02-03T08:55:44;47743.97;;;-141.97;51.60
7018;BME280;3549;42.162;24.726;2023-02-03T08:58:09;47715.13;;;-141.97;52.00
7018;BME280;3549;42.162;24.726;2023-02-03T09:00:35;47743.97;;;-141.97;52.17
7018;BME280;3549;42.162;24.726;2023-02-03T09:03:00;47619.03;;;-141.97;51.65
7018;BME280;3549;42.162;24.726;2023-02-03T09:05:29;47694.00;;;-141.97;50.61
7018;BME280;3549;42.162;24.726;2023-02-03T09:07:54;47690.16;;;-141.97;50.43
7018;BME280;3549;42.162;24.726;2023-02-03T09:10:20;47674.78;;;-141.97;50.14
7018;BME280;3549;42.162;24.726;2023-02-03T09:12:45;47730.50;;;-141.97;49.50
7018;BME280;3549;42.162;24.726;2023-02-03T09:15:10;47684.38;;;-141.97;48.53
7018;BME280;3549;42.162;24.726;2023-02-03T09:17:36;47707.44;;;-141.97;48.02
7018;BME280;3549;42.162;24.726;2023-02-03T09:20:01;47705.53;;;-141.97;48.35
7018;BME280;3549;42.162;24.726;2023-02-03T09:22:27;47649.78;;;-141.97;47.80
7018;BME280;3549;42.162;24.726;2023-02-03T09:24:52;47678.63;;;-141.97;47.99
7018;BME280;3549;42.162;24.726;2023-02-03T09:27:17;47842.00;;;-141.97;47.76
7018;BME280;3549;42.162;24.726;2023-02-03T09:29:43;47722.81;;;-141.97;47.39
7018;BME280;3549;42.162;24.726;2023-02-03T09:32:08;47738.19;;;-141.97;46.16
7018;BME280;3549;42.162;24.726;2023-02-03T09:34:35;47717.06;;;-141.97;45.40
7018;BME280;3549;42.162;24.726;2023-02-03T09:37:00;47713.22;;;-141.97;45.72
7018;BME280;3549;42.162;24.726;2023-02-03T09:39:26;47703.59;;;-141.97;46.18
7018;BME280;3549;42.162;24.726;2023-02-03T09:44:32;47703.59;;;-141.97;45.48
7018;BME280;3549;42.162;24.726;2023-02-03T09:47:03;47718.97;;;-141.97;44.33
7018;BME280;3549;42.162;24.726;2023-02-03T09:52:24;47692.06;;;-141.97;44.16
7018;BME280;3549;42.162;24.726;2023-02-03T09:54:56;47711.28;;;-141.97;43.87
7018;BME280;3549;42.162;24.726;2023-02-03T09:57:25;47728.59;;;-141.97;44.05
7018;BME280;3549;42.162;24.726;2023-02-03T09:59:53;47682.47;;;-141.97;43.86
7018;BME280;3549;42.162;24.726;2023-02-03T10:05:06;47672.84;;;-141.97;44.90
7018;BME280;3549;42.162;24.726;2023-02-03T10:15:34;47818.94;;;-141.97;44.99
7018;BME280;3549;42.162;24.726;2023-02-03T10:18:08;47747.81;;;-141.97;44.63
7018;BME280;3549;42.162;24.726;2023-02-03T10:20:46;47686.31;;;-141.97;44.98
7018;BME280;3549;42.162;24.726;2023-02-03T10:23:27;47742.03;;;-141.97;43.04
7018;BME280;3549;42.162;24.726;2023-02-03T10:25:54;47726.66;;;-141.97;42.89
7018;BME280;3549;42.162;24.726;2023-02-03T10:28:26;47728.59;;;-141.97;44.63
7018;BME280;3549;42.162;24.726;2023-02-03T10:30:59;47572.91;;;-141.97;44.71
7018;BME280;3549;42.162;24.726;2023-02-03T10:33:27;47699.75;;;-141.97;43.13
7018;BME280;3549;42.162;24.726;2023-02-03T10:35:59;47695.91;;;-141.97;42.93
7018;BME280;3549;42.162;24.726;2023-02-03T10:41:14;47803.56;;;-141.97;42.08
7018;BME280;3549;42.162;24.726;2023-02-03T10:43:40;47732.44;;;-141.97;42.32
7018;BME280;3549;42.162;24.726;2023-02-03T10:46:35;47763.19;;;-141.97;41.73
7018;BME280;3549;42.162;24.726;2023-02-03T10:49:02;47742.03;;;-141.97;41.66
7018;BME280;3549;42.162;24.726;2023-02-03T10:51:49;47638.25;;;-141.97;42.75
7018;BME280;3549;42.162;24.726;2023-02-03T10:54:33;47688.22;;;-141.97;41.64
7018;BME280;3549;42.162;24.726;2023-02-03T10:57:10;47784.34;;;-141.97;42.16
7018;BME280;3549;42.162;24.726;2023-02-03T10:59:40;47736.28;;;-141.97;42.04
7018;BME280;3549;42.162;24.726;2023-02-03T11:04:45;47670.91;;;-141.97;42.15
7018;BME280;3549;42.162;24.726;2023-02-03T11:07:23;47788.19;;;-141.97;41.47
7018;BME280;3549;42.162;24.726;2023-02-03T11:09:49;47692.06;;;-141.97;41.01
7018;BME280;3549;42.162;24.726;2023-02-03T11:12:19;47692.06;;;-141.97;41.39
7018;BME280;3549;42.162;24.726;2023-02-03T11:14:46;47720.91;;;-141.97;41.42
7018;BME280;3549;42.162;24.726;2023-02-03T11:17:23;47742.03;;;-141.97;41.47
7018;BME280;3549;42.162;24.726;2023-02-03T11:19:58;47770.88;;;-141.97;42.17
7018;BME280;3549;42.162;24.726;2023-02-03T11:22:35;47661.31;;;-141.97;42.80
7018;BME280;3549;42.162;24.726;2023-02-03T11:25:04;47638.25;;;-141.97;42.14
7018;BME280;3549;42.162;24.726;2023-02-03T11:27:40;47669.00;;;-141.97;42.10
7018;BME280;3549;42.162;24.726;2023-02-03T11:30:12;47665.16;;;-141.97;41.91
7018;BME280;3549;42.162;24.726;2023-02-03T11:32:40;47678.63;;;-141.97;40.90
7018;BME280;3549;42.162;24.726;2023-02-03T11:35:21;47715.13;;;-141.97;40.82
7018;BME280;3549;42.162;24.726;2023-02-03T11:37:49;47742.03;;;-141.97;40.46
7018;BME280;3549;42.162;24.726;2023-02-03T11:42:44;47645.94;;;-141.97;40.81
7018;BME280;3549;42.162;24.726;2023-02-03T11:45:13;47709.38;;;-141.97;40.37
7018;BME280;3549;42.162;24.726;2023-02-03T11:47:46;47718.97;;;-141.97;40.95
7018;BME280;3549;42.162;24.726;2023-02-03T11:50:40;47717.06;;;-141.97;40.57
7018;BME280;3549;42.162;24.726;2023-02-03T11:55:54;47728.59;;;-141.97;40.15
7018;BME280;3549;42.162;24.726;2023-02-03T12:07:18;47711.28;;;-141.97;37.57
7018;BME280;3549;42.162;24.726;2023-02-03T12:09:59;47732.44;;;-141.97;38.47
7018;BME280;3549;42.162;24.726;2023-02-03T12:15:03;47705.53;;;-141.97;39.33
7018;BME280;3549;42.162;24.726;2023-02-03T12:30:54;47680.53;;;-141.97;39.79
7018;BME280;3549;42.162;24.726;2023-02-03T12:33:34;47692.06;;;-141.97;39.54
7018;BME280;3549;42.162;24.726;2023-02-03T12:36:10;47703.59;;;-141.97;38.95
7018;BME280;3549;42.162;24.726;2023-02-03T12:38:58;47815.09;;;-141.97;39.44
7018;BME280;3549;42.162;24.726;2023-02-03T12:41:40;47695.91;;;-141.97;39.34
7018;BME280;3549;42.162;24.726;2023-02-03T12:44:25;47674.78;;;-141.97;39.43
7018;BME280;3549;42.162;24.726;2023-02-03T12:47:18;47736.28;;;-141.97;39.60
7018;BME280;3549;42.162;24.726;2023-02-03T12:52:39;47715.13;;;-141.97;40.68
7018;BME280;3549;42.162;24.726;2023-02-03T12:57:53;47734.34;;;-141.97;39.88
7018;BME280;3549;42.162;24.726;2023-02-03T13:08:41;47742.03;;;-141.97;40.01
7018;BME280;3549;42.162;24.726;2023-02-03T13:11:21;47711.28;;;-141.97;39.54
7018;BME280;3549;42.162;24.726;2023-02-03T13:16:50;47763.19;;;-141.97;39.52
7018;BME280;3549;42.162;24.726;2023-02-03T13:19:21;47772.78;;;-141.97;39.77
7018;BME280;3549;42.162;24.726;2023-02-03T13:21:48;47817.00;;;-141.97;40.46
7018;BME280;3549;42.162;24.726;2023-02-03T13:24:14;47674.78;;;-141.97;40.40
7018;BME280;3549;42.162;24.726;2023-02-03T13:31:45;47713.22;;;-141.97;39.97
7018;BME280;3549;42.162;24.726;2023-02-03T13:42:59;47669.00;;;-141.97;35.95
7018;BME280;3549;42.162;24.726;2023-02-03T13:45:37;47734.34;;;-141.97;36.53
7018;BME280;3549;42.162;24.726;2023-02-03T13:48:26;47720.91;;;-141.97;36.65
7018;BME280;3549;42.162;24.726;2023-02-03T13:51:05;47836.22;;;-141.97;36.65
7018;BME280;3549;42.162;24.726;2023-02-03T13:53:36;47680.53;;;-141.97;36.98
7018;BME280;3549;42.162;24.726;2023-02-03T13:56:06;47751.66;;;-141.97;37.57
7018;BME280;3549;42.162;24.726;2023-02-03T13:58:34;47682.47;;;-141.97;37.01
7018;BME280;3549;42.162;24.726;2023-02-03T14:01:25;47788.19;;;-141.97;36.40
7018;BME280;3549;42.162;24.726;2023-02-03T14:03:51;47569.06;;;-141.97;35.25
7018;BME280;3549;42.162;24.726;2023-02-03T14:09:01;47826.63;;;-141.97;32.85
7018;BME280;3549;42.162;24.726;2023-02-03T14:16:37;47699.75;;;-141.97;35.29
7018;BME280;3549;42.162;24.726;2023-02-03T14:19:05;47676.69;;;-141.97;35.47
7018;BME280;3549;42.162;24.726;2023-02-03T14:21:54;47717.06;;;-141.97;35.40
7018;BME280;3549;42.162;24.726;2023-02-03T14:24:21;47809.31;;;-141.97;35.90
7018;BME280;3549;42.162;24.726;2023-02-03T14:26:50;47663.22;;;-141.97;35.72
7018;BME280;3549;42.162;24.726;2023-02-03T14:29:33;47678.63;;;-141.97;35.95
7018;BME280;3549;42.162;24.726;2023-02-03T14:32:01;47680.53;;;-141.97;35.95
7018;BME280;3549;42.162;24.726;2023-02-03T14:34:38;47757.41;;;-141.97;35.53
7018;BME280;3549;42.162;24.726;2023-02-03T14:37:29;47732.44;;;-141.97;35.83
7018;BME280;3549;42.162;24.726;2023-02-03T14:40:26;47697.84;;;-141.97;36.18
7018;BME280;3549;42.162;24.726;2023-02-03T14:43:15;47661.31;;;-141.97;35.82
7018;BME280;3549;42.162;24.726;2023-02-03T14:59:59;47686.31;;;-141.97;35.92
7018;BME280;3549;42.162;24.726;2023-02-03T15:02:28;47688.22;;;-141.97;35.99
7018;BME280;3549;42.162;24.726;2023-02-03T15:07:44;47718.97;;;-141.97;36.24